Time;durP1;ratioP1;P1;durP2;ratioP2;P2;SDS_P1;SDS_P2;PMS_P1;PMS_P2;Temp;Humidity;BMP_temperature;BMP_pressure;BME280_temperature;BME280_humidity;BME280_pressure;Samples;Min_cycle;Max_cycle;Signal;HPM_P1;HPM_P2
2022/03/13 00:01:46;;;;;;;16.60;14.68;;;;;;;;;;4966544;28;20053;-74
2022/03/13 00:04:13;;;;;;;16.08;14.15;;;;;;;;;;4962599;28;20042;-74
2022/03/13 00:06:39;;;;;;;17.52;14.20;;;;;;;;;;4963045;28;20059;-74
2022/03/13 00:09:12;;;;;;;17.00;14.18;;;;;;;;;;4946113;28;20060;-74
2022/03/13 00:11:39;;;;;;;17.27;14.38;;;;;;;;;;4957446;28;20465;-74
2022/03/13 00:14:05;;;;;;;16.17;13.23;;;;;;;;;;4968630;28;20052;-74
2022/03/13 00:16:32;;;;;;;16.83;13.85;;;;;;;;;;4964550;28;20521;-74
2022/03/13 00:18:59;;;;;;;17.67;14.35;;;;;;;;;;4965837;28;20046;-74
2022/03/13 00:21:25;;;;;;;18.02;13.90;;;;;;;;;;4971129;28;20054;-74
2022/03/13 00:23:51;;;;;;;15.95;14.25;;;;;;;;;;4972519;28;20043;-74
2022/03/13 00:26:17;;;;;;;17.13;14.15;;;;;;;;;;4970597;28;20034;-74
2022/03/13 00:28:45;;;;;;;16.48;13.70;;;;;;;;;;4972561;28;20043;-73
2022/03/13 00:31:11;;;;;;;17.50;14.85;;;;;;;;;;4972313;28;20109;-74
2022/03/13 00:33:37;;;;;;;17.42;14.73;;;;;;;;;;4971488;28;20074;-74
2022/03/13 00:36:03;;;;;;;17.08;14.35;;;;;;;;;;4970148;28;20051;-74
2022/03/13 00:38:29;;;;;;;18.33;14.80;;;;;;;;;;4971766;28;20045;-74
2022/03/13 00:40:56;;;;;;;17.55;14.27;;;;;;;;;;4971900;28;20074;-74
2022/03/13 00:43:23;;;;;;;18.08;14.85;;;;;;;;;;4955494;28;20054;-74
2022/03/13 00:45:50;;;;;;;19.15;15.27;;;;;;;;;;4972434;28;20477;-74
2022/03/13 00:48:16;;;;;;;16.00;14.38;;;;;;;;;;4937876;29;20047;-74
2022/03/13 00:50:42;;;;;;;16.58;14.77;;;;;;;;;;4964730;28;20039;-74
2022/03/13 00:53:08;;;;;;;18.35;14.82;;;;;;;;;;4965155;28;20038;-74
2022/03/13 00:55:35;;;;;;;18.70;15.00;;;;;;;;;;4971614;28;20601;-74
2022/03/13 00:58:01;;;;;;;17.45;15.48;;;;;;;;;;4971065;28;20042;-74
2022/03/13 01:00:27;;;;;;;20.23;15.48;;;;;;;;;;4971441;28;20062;-74
2022/03/13 01:02:53;;;;;;;18.65;15.75;;;;;;;;;;4971726;28;20070;-74
2022/03/13 01:05:23;;;;;;;16.40;14.30;;;;;;;;;;4971460;28;20063;-74
2022/03/13 01:07:49;;;;;;;19.65;15.70;;;;;;;;;;4967382;28;20059;-74
2022/03/13 01:10:16;;;;;;;18.25;15.02;;;;;;;;;;4954624;28;20154;-74
2022/03/13 01:12:42;;;;;;;17.63;14.93;;;;;;;;;;4967866;28;20477;-73
2022/03/13 01:15:08;;;;;;;17.88;14.88;;;;;;;;;;4944913;28;20598;-74
2022/03/13 01:17:34;;;;;;;20.05;16.10;;;;;;;;;;4971452;28;20035;-74
2022/03/13 01:20:02;;;;;;;18.85;15.13;;;;;;;;;;4971572;28;20041;-74
2022/03/13 01:22:28;;;;;;;18.42;14.63;;;;;;;;;;4971342;28;20084;-74
2022/03/13 01:24:54;;;;;;;17.08;14.43;;;;;;;;;;4959827;28;20143;-74
2022/03/13 01:27:22;;;;;;;19.70;16.05;;;;;;;;;;4961383;28;20039;-73
2022/03/13 01:29:48;;;;;;;16.42;14.63;;;;;;;;;;4958795;28;20086;-74
2022/03/13 01:32:15;;;;;;;16.95;15.07;;;;;;;;;;4964531;28;20477;-74
2022/03/13 01:34:42;;;;;;;17.38;14.77;;;;;;;;;;4967690;28;20042;-74
2022/03/13 01:37:12;;;;;;;19.00;15.98;;;;;;;;;;4970948;28;20712;-74
2022/03/13 01:39:37;;;;;;;19.98;15.85;;;;;;;;;;4971231;28;20049;-74
2022/03/13 01:42:04;;;;;;;20.13;16.83;;;;;;;;;;4970701;28;20122;-74
2022/03/13 01:44:30;;;;;;;18.67;16.35;;;;;;;;;;4969684;28;20049;-74
2022/03/13 01:46:56;;;;;;;19.90;15.93;;;;;;;;;;4943578;29;20047;-74
2022/03/13 01:49:22;;;;;;;19.15;15.25;;;;;;;;;;4963501;28;20126;-74
2022/03/13 01:51:48;;;;;;;18.23;15.93;;;;;;;;;;4970174;28;20082;-74
2022/03/13 01:54:14;;;;;;;20.13;15.85;;;;;;;;;;4971378;28;20050;-74
2022/03/13 01:56:41;;;;;;;26.52;16.48;;;;;;;;;;4971213;28;20460;-74
2022/03/13 01:59:08;;;;;;;18.90;16.20;;;;;;;;;;4967114;28;20046;-74
2022/03/13 02:01:35;;;;;;;20.70;15.73;;;;;;;;;;4948060;28;20043;-74
2022/03/13 02:04:01;;;;;;;19.15;14.90;;;;;;;;;;4964969;28;20042;-74
2022/03/13 02:06:27;;;;;;;21.38;17.00;;;;;;;;;;4964652;28;20096;-74
2022/03/13 02:08:54;;;;;;;20.55;15.65;;;;;;;;;;4963750;28;20062;-74
2022/03/13 02:11:24;;;;;;;21.15;16.10;;;;;;;;;;4969257;28;20043;-74
2022/03/13 02:13:51;;;;;;;16.95;15.15;;;;;;;;;;4971589;28;20054;-74
2022/03/13 02:16:18;;;;;;;18.67;15.50;;;;;;;;;;4970669;28;20499;-75
2022/03/13 02:18:54;;;;;;;17.73;15.57;;;;;;;;;;4970667;28;20045;-74
2022/03/13 02:21:27;;;;;;;17.05;15.18;;;;;;;;;;4970754;28;20126;-74
2022/03/13 02:23:55;;;;;;;16.38;14.20;;;;;;;;;;4968758;28;20053;-74
2022/03/13 02:26:21;;;;;;;17.58;14.95;;;;;;;;;;4970768;28;20043;-74
2022/03/13 02:28:51;;;;;;;20.08;15.35;;;;;;;;;;4971306;28;20385;-74
2022/03/13 02:31:18;;;;;;;17.58;14.73;;;;;;;;;;4970348;28;20043;-74
2022/03/13 02:33:44;;;;;;;17.10;15.13;;;;;;;;;;4971054;28;20673;-74
2022/03/13 02:36:29;;;;;;;16.02;14.25;;;;;;;;;;4968352;28;20058;-75
2022/03/13 02:38:55;;;;;;;18.15;14.63;;;;;;;;;;4957111;28;20042;-74
2022/03/13 02:41:21;;;;;;;17.90;15.07;;;;;;;;;;4969706;28;20397;-75
2022/03/13 02:43:47;;;;;;;15.77;13.98;;;;;;;;;;4970707;28;20086;-74
2022/03/13 02:46:21;;;;;;;16.50;13.55;;;;;;;;;;4971112;28;20049;-74
2022/03/13 02:48:47;;;;;;;15.63;13.70;;;;;;;;;;4969699;28;20050;-74
2022/03/13 02:51:13;;;;;;;16.88;14.38;;;;;;;;;;4971140;28;20122;-74
2022/03/13 02:53:39;;;;;;;18.02;15.52;;;;;;;;;;4970470;28;20412;-74
2022/03/13 02:56:06;;;;;;;16.10;14.38;;;;;;;;;;4970284;28;20054;-74
2022/03/13 02:58:35;;;;;;;18.17;15.43;;;;;;;;;;4969417;28;20392;-74
2022/03/13 03:01:01;;;;;;;18.63;15.35;;;;;;;;;;4970679;28;20122;-74
2022/03/13 03:03:27;;;;;;;18.00;14.85;;;;;;;;;;4970261;28;20046;-74
2022/03/13 03:05:53;;;;;;;19.88;15.50;;;;;;;;;;4972147;28;20062;-74
2022/03/13 03:08:19;;;;;;;19.75;16.00;;;;;;;;;;4956712;28;20047;-74
2022/03/13 03:10:46;;;;;;;17.02;15.25;;;;;;;;;;4972323;28;20778;-74
2022/03/13 03:13:12;;;;;;;17.58;15.05;;;;;;;;;;4964884;28;20039;-75
2022/03/13 03:15:39;;;;;;;16.88;14.82;;;;;;;;;;4972168;28;20047;-74
2022/03/13 03:18:05;;;;;;;19.75;15.80;;;;;;;;;;4973324;28;20129;-74
2022/03/13 03:20:32;;;;;;;19.35;15.18;;;;;;;;;;4973717;28;20485;-74
2022/03/13 03:22:58;;;;;;;17.83;15.85;;;;;;;;;;4974018;28;20051;-74
2022/03/13 03:25:28;;;;;;;19.42;16.30;;;;;;;;;;4973789;28;20050;-74
2022/03/13 03:27:55;;;;;;;18.48;15.82;;;;;;;;;;4973577;28;20054;-74
2022/03/13 03:30:26;;;;;;;19.20;16.65;;;;;;;;;;4973980;28;20085;-74
2022/03/13 03:32:52;;;;;;;17.98;15.60;;;;;;;;;;4971685;28;20056;-74
2022/03/13 03:35:19;;;;;;;19.33;15.85;;;;;;;;;;4973663;28;20123;-74
2022/03/13 03:37:45;;;;;;;19.70;16.13;;;;;;;;;;4972812;28;20049;-74
2022/03/13 03:40:11;;;;;;;20.80;16.63;;;;;;;;;;4971276;28;20053;-74
2022/03/13 03:42:37;;;;;;;18.27;16.10;;;;;;;;;;4973459;28;20050;-74
2022/03/13 03:45:04;;;;;;;19.73;16.58;;;;;;;;;;4973175;28;20043;-74
2022/03/13 03:47:30;;;;;;;18.63;15.18;;;;;;;;;;4957728;28;20376;-74
2022/03/13 03:49:56;;;;;;;19.15;15.45;;;;;;;;;;4971864;28;20447;-74
2022/03/13 03:52:22;;;;;;;18.00;16.08;;;;;;;;;;4973377;28;20042;-74
2022/03/13 03:54:48;;;;;;;17.50;15.60;;;;;;;;;;4972105;28;20049;-74
2022/03/13 03:57:14;;;;;;;21.55;16.52;;;;;;;;;;4973337;28;20398;-74
2022/03/13 03:59:40;;;;;;;20.48;16.30;;;;;;;;;;4973118;28;20093;-74
2022/03/13 04:02:06;;;;;;;20.35;16.05;;;;;;;;;;4973181;28;20039;-74
2022/03/13 04:04:32;;;;;;;18.67;16.45;;;;;;;;;;4972745;28;20133;-74
2022/03/13 04:06:58;;;;;;;18.98;16.67;;;;;;;;;;4971706;28;20047;-74
2022/03/13 04:09:24;;;;;;;19.15;16.63;;;;;;;;;;4972855;28;20113;-74
2022/03/13 04:11:52;;;;;;;18.65;16.65;;;;;;;;;;4965467;28;20051;-74
2022/03/13 04:14:20;;;;;;;19.33;16.13;;;;;;;;;;4961831;28;20548;-74
2022/03/13 04:16:46;;;;;;;20.70;17.00;;;;;;;;;;4971672;28;20477;-74
2022/03/13 04:19:13;;;;;;;19.52;15.88;;;;;;;;;;4971334;28;20043;-74
2022/03/13 04:21:41;;;;;;;19.52;16.35;;;;;;;;;;4961071;28;20070;-74
2022/03/13 04:24:11;;;;;;;18.75;16.17;;;;;;;;;;4955352;28;20048;-74
2022/03/13 04:26:39;;;;;;;20.75;15.20;;;;;;;;;;4956715;28;20492;-74
2022/03/13 04:29:06;;;;;;;20.42;16.48;;;;;;;;;;4955249;28;20061;-74
2022/03/13 04:31:35;;;;;;;19.20;16.88;;;;;;;;;;4972787;28;20045;-74
2022/03/13 04:34:01;;;;;;;20.88;15.80;;;;;;;;;;4972637;28;20061;-74
2022/03/13 04:36:28;;;;;;;19.50;16.02;;;;;;;;;;4971503;28;20035;-74
2022/03/13 04:38:54;;;;;;;17.60;15.45;;;;;;;;;;4972085;28;20497;-74
2022/03/13 04:41:20;;;;;;;19.80;16.13;;;;;;;;;;4971676;28;20388;-74
2022/03/13 04:43:47;;;;;;;19.45;15.52;;;;;;;;;;4971730;28;20039;-75
2022/03/13 04:46:15;;;;;;;17.05;15.13;;;;;;;;;;4972147;28;20154;-74
2022/03/13 04:48:41;;;;;;;18.88;13.98;;;;;;;;;;4972603;28;20043;-74
2022/03/13 04:51:07;;;;;;;18.70;15.68;;;;;;;;;;4971855;28;20049;-74
2022/03/13 04:53:33;;;;;;;17.25;15.13;;;;;;;;;;4955690;28;20035;-74
2022/03/13 04:55:59;;;;;;;17.67;15.10;;;;;;;;;;4970898;28;20043;-74
2022/03/13 04:58:25;;;;;;;16.67;12.90;;;;;;;;;;4971602;28;20117;-74
2022/03/13 05:00:52;;;;;;;19.15;15.23;;;;;;;;;;4971347;28;20045;-74
2022/03/13 05:03:18;;;;;;;16.90;14.45;;;;;;;;;;4972348;28;20042;-74
2022/03/13 05:05:43;;;;;;;18.08;15.18;;;;;;;;;;4966127;28;20039;-74
2022/03/13 05:08:13;;;;;;;17.58;14.77;;;;;;;;;;4971484;28;20166;-74
2022/03/13 05:10:39;;;;;;;17.63;14.73;;;;;;;;;;4971420;28;20070;-74
2022/03/13 05:13:06;;;;;;;17.13;15.07;;;;;;;;;;4970837;28;20053;-74
2022/03/13 05:15:32;;;;;;;17.10;14.73;;;;;;;;;;4948467;28;20044;-74
2022/03/13 05:17:58;;;;;;;17.88;14.80;;;;;;;;;;4971537;28;20048;-74
2022/03/13 05:20:24;;;;;;;17.80;15.20;;;;;;;;;;4971733;28;20129;-74
2022/03/13 05:22:50;;;;;;;18.05;14.93;;;;;;;;;;4971580;28;20142;-74
2022/03/13 05:25:16;;;;;;;16.40;14.20;;;;;;;;;;4971467;28;20053;-74
2022/03/13 05:27:42;;;;;;;16.17;14.48;;;;;;;;;;4954338;28;20038;-74
2022/03/13 05:30:09;;;;;;;18.48;15.07;;;;;;;;;;4969114;28;20145;-75
2022/03/13 05:32:35;;;;;;;18.98;14.75;;;;;;;;;;4969523;28;20117;-75
2022/03/13 05:35:02;;;;;;;17.60;15.23;;;;;;;;;;4971185;28;20058;-75
2022/03/13 05:37:28;;;;;;;16.83;14.80;;;;;;;;;;4971352;28;20049;-75
2022/03/13 05:39:54;;;;;;;17.05;14.63;;;;;;;;;;4969694;28;20039;-75
2022/03/13 05:42:24;;;;;;;18.90;15.02;;;;;;;;;;4970661;28;20381;-74
2022/03/13 05:44:51;;;;;;;17.48;14.00;;;;;;;;;;4954486;28;20385;-74
2022/03/13 05:47:18;;;;;;;16.08;14.38;;;;;;;;;;4970486;28;20559;-74
2022/03/13 05:49:44;;;;;;;17.42;14.90;;;;;;;;;;4970847;28;20043;-74
2022/03/13 05:52:13;;;;;;;17.08;15.20;;;;;;;;;;4942750;28;20050;-74
2022/03/13 05:54:39;;;;;;;18.77;15.32;;;;;;;;;;4970603;28;20556;-74
2022/03/13 05:57:09;;;;;;;17.70;15.02;;;;;;;;;;4970623;28;20110;-75
2022/03/13 05:59:35;;;;;;;17.15;13.93;;;;;;;;;;4952838;28;20114;-75
2022/03/13 06:02:04;;;;;;;17.38;13.80;;;;;;;;;;4970216;28;20678;-74
2022/03/13 06:04:31;;;;;;;17.83;14.52;;;;;;;;;;4972025;28;20093;-75
2022/03/13 06:06:57;;;;;;;15.98;14.30;;;;;;;;;;4967136;28;20061;-74
2022/03/13 06:09:23;;;;;;;17.02;14.20;;;;;;;;;;4965400;28;20050;-74
2022/03/13 06:11:49;;;;;;;18.15;14.32;;;;;;;;;;4970463;28;20122;-74
2022/03/13 06:14:15;;;;;;;16.23;14.48;;;;;;;;;;4971072;28;20047;-74
2022/03/13 06:16:41;;;;;;;17.35;14.93;;;;;;;;;;4954732;28;20046;-75
2022/03/13 06:19:07;;;;;;;15.20;13.52;;;;;;;;;;4969638;28;20453;-75
2022/03/13 06:21:33;;;;;;;18.35;14.43;;;;;;;;;;4970423;28;20066;-75
2022/03/13 06:23:59;;;;;;;17.10;14.45;;;;;;;;;;4967220;28;20039;-75
2022/03/13 06:26:25;;;;;;;18.15;13.93;;;;;;;;;;4964653;28;20413;-75
2022/03/13 06:28:51;;;;;;;16.58;13.77;;;;;;;;;;4969768;28;20034;-75
2022/03/13 06:31:18;;;;;;;17.52;14.27;;;;;;;;;;4966121;28;20125;-75
2022/03/13 06:33:44;;;;;;;16.40;14.13;;;;;;;;;;4970709;28;20118;-75
2022/03/13 06:36:10;;;;;;;15.95;14.07;;;;;;;;;;4953717;28;20138;-75
2022/03/13 06:38:36;;;;;;;15.50;13.02;;;;;;;;;;4969209;28;20049;-75
2022/03/13 06:41:02;;;;;;;20.33;14.05;;;;;;;;;;4973090;28;20039;-75
2022/03/13 06:43:28;;;;;;;15.63;13.85;;;;;;;;;;4974574;28;20129;-75
2022/03/13 06:45:54;;;;;;;15.80;13.88;;;;;;;;;;4971210;28;20251;-75
2022/03/13 06:48:21;;;;;;;16.85;14.65;;;;;;;;;;4960814;28;20511;-75
2022/03/13 06:50:48;;;;;;;15.75;13.38;;;;;;;;;;4966202;28;20042;-75
2022/03/13 06:53:14;;;;;;;15.90;13.95;;;;;;;;;;4957225;28;20042;-75
2022/03/13 06:55:40;;;;;;;16.40;13.57;;;;;;;;;;4966233;28;20043;-75
2022/03/13 06:58:06;;;;;;;16.33;14.35;;;;;;;;;;4970985;28;20046;-75
2022/03/13 07:00:33;;;;;;;17.98;13.30;;;;;;;;;;4966371;28;20053;-75
2022/03/13 07:02:59;;;;;;;15.48;13.38;;;;;;;;;;4956763;28;20042;-75
2022/03/13 07:05:25;;;;;;;16.38;13.50;;;;;;;;;;4943484;28;20051;-75
2022/03/13 07:07:55;;;;;;;15.57;13.27;;;;;;;;;;4969088;28;20065;-75
2022/03/13 07:10:21;;;;;;;16.85;13.73;;;;;;;;;;4970258;28;20043;-75
2022/03/13 07:12:47;;;;;;;15.25;13.63;;;;;;;;;;4966669;28;20484;-75
2022/03/13 07:15:14;;;;;;;15.48;13.02;;;;;;;;;;4972172;28;20086;-75
2022/03/13 07:17:46;;;;;;;14.63;13.02;;;;;;;;;;4955016;29;20070;-75
2022/03/13 07:20:13;;;;;;;17.10;13.63;;;;;;;;;;4966683;28;20101;-75
2022/03/13 07:22:39;;;;;;;20.20;14.20;;;;;;;;;;4967259;28;20046;-75
2022/03/13 07:25:06;;;;;;;16.75;13.18;;;;;;;;;;4972289;28;20058;-75
2022/03/13 07:27:32;;;;;;;15.00;12.88;;;;;;;;;;4973922;28;20046;-75
2022/03/13 07:29:58;;;;;;;17.67;13.27;;;;;;;;;;4967850;28;20046;-75
2022/03/13 07:32:24;;;;;;;14.52;12.70;;;;;;;;;;4939170;29;20043;-75
2022/03/13 07:34:50;;;;;;;19.58;14.02;;;;;;;;;;4965558;28;20483;-75
2022/03/13 07:37:16;;;;;;;15.68;13.40;;;;;;;;;;4968495;28;20047;-75
2022/03/13 07:39:42;;;;;;;15.23;13.13;;;;;;;;;;4973637;28;20493;-75
2022/03/13 07:42:09;;;;;;;16.50;14.15;;;;;;;;;;4944497;28;20035;-75
2022/03/13 07:44:35;;;;;;;16.35;13.93;;;;;;;;;;4973380;28;20047;-76
2022/03/13 07:47:01;;;;;;;17.58;14.05;;;;;;;;;;4950338;28;20058;-75
2022/03/13 07:49:27;;;;;;;15.27;12.65;;;;;;;;;;4971465;28;20042;-75
2022/03/13 07:51:53;;;;;;;14.48;12.48;;;;;;;;;;4964774;28;20043;-75
2022/03/13 07:54:20;;;;;;;15.95;13.20;;;;;;;;;;4971089;28;20042;-75
2022/03/13 07:56:46;;;;;;;15.55;12.95;;;;;;;;;;4956466;28;20034;-75
2022/03/13 07:59:12;;;;;;;13.75;11.80;;;;;;;;;;4972380;28;20047;-75
2022/03/13 08:01:38;;;;;;;17.73;13.48;;;;;;;;;;4965001;28;20089;-75
2022/03/13 08:04:05;;;;;;;14.60;12.77;;;;;;;;;;4961213;28;20047;-74
2022/03/13 08:06:35;;;;;;;15.55;13.52;;;;;;;;;;4961424;28;20043;-74
2022/03/13 08:09:02;;;;;;;18.20;13.57;;;;;;;;;;4939925;28;20051;-75
2022/03/13 08:11:28;;;;;;;14.60;12.43;;;;;;;;;;4964691;28;20039;-75
2022/03/13 08:13:54;;;;;;;15.57;12.65;;;;;;;;;;4968457;28;20047;-75
2022/03/13 08:16:20;;;;;;;14.35;12.85;;;;;;;;;;4958279;28;20030;-75
2022/03/13 08:18:46;;;;;;;14.40;12.77;;;;;;;;;;4970672;28;20407;-75
2022/03/13 08:21:13;;;;;;;13.98;12.10;;;;;;;;;;4948786;28;20677;-75
2022/03/13 08:23:39;;;;;;;17.08;12.88;;;;;;;;;;4967893;28;20073;-74
2022/03/13 08:26:05;;;;;;;14.98;12.32;;;;;;;;;;4944534;28;20379;-75
2022/03/13 08:28:32;;;;;;;15.15;11.98;;;;;;;;;;4970246;28;20043;-75
2022/03/13 08:30:58;;;;;;;14.25;11.93;;;;;;;;;;4966028;28;20054;-75
2022/03/13 08:33:24;;;;;;;15.77;11.80;;;;;;;;;;4948396;28;20051;-75
2022/03/13 08:35:50;;;;;;;15.65;13.05;;;;;;;;;;4970255;28;20046;-75
2022/03/13 08:38:16;;;;;;;15.10;12.77;;;;;;;;;;4955594;28;23038;-76
2022/03/13 08:40:43;;;;;;;15.23;12.15;;;;;;;;;;4959618;28;20067;-75
2022/03/13 08:43:09;;;;;;;15.27;11.75;;;;;;;;;;4965971;28;20106;-75
2022/03/13 08:45:34;;;;;;;13.98;12.55;;;;;;;;;;4960864;28;20074;-75
2022/03/13 08:48:00;;;;;;;15.63;12.75;;;;;;;;;;4960651;28;20089;-75
2022/03/13 08:50:27;;;;;;;14.50;11.82;;;;;;;;;;4961229;28;20042;-75
2022/03/13 08:52:53;;;;;;;13.30;11.48;;;;;;;;;;4965226;28;20058;-75
2022/03/13 08:55:19;;;;;;;13.55;11.68;;;;;;;;;;4950075;28;20618;-75
2022/03/13 08:57:45;;;;;;;14.63;11.80;;;;;;;;;;4970242;28;20042;-75
2022/03/13 09:00:14;;;;;;;12.90;11.43;;;;;;;;;;4963194;28;20050;-75
2022/03/13 09:02:40;;;;;;;14.18;12.50;;;;;;;;;;4965459;28;20528;-75
2022/03/13 09:05:06;;;;;;;14.18;11.80;;;;;;;;;;4961070;28;20042;-74
2022/03/13 09:07:32;;;;;;;13.52;11.32;;;;;;;;;;4965687;28;20133;-75
2022/03/13 09:09:58;;;;;;;14.70;12.00;;;;;;;;;;4960730;28;20054;-74
2022/03/13 09:12:24;;;;;;;13.77;11.85;;;;;;;;;;4968281;28;20043;-75
2022/03/13 09:14:51;;;;;;;13.15;11.75;;;;;;;;;;4970410;28;20082;-75
2022/03/13 09:17:17;;;;;;;14.68;12.27;;;;;;;;;;4969592;28;20126;-75
2022/03/13 09:19:43;;;;;;;14.60;12.43;;;;;;;;;;4972265;28;20046;-74
2022/03/13 09:22:09;;;;;;;13.13;11.75;;;;;;;;;;4970255;28;20043;-75
2022/03/13 09:24:36;;;;;;;12.20;10.90;;;;;;;;;;4955892;28;20046;-75
2022/03/13 09:27:02;;;;;;;12.88;11.57;;;;;;;;;;4955671;28;20070;-75
2022/03/13 09:29:28;;;;;;;17.23;12.48;;;;;;;;;;4972179;28;20404;-75
2022/03/13 09:31:53;;;;;;;13.68;11.07;;;;;;;;;;4971699;28;20043;-75
2022/03/13 09:34:19;;;;;;;12.82;10.68;;;;;;;;;;4972009;28;20062;-75
2022/03/13 09:36:46;;;;;;;13.25;10.80;;;;;;;;;;4946447;29;20058;-75
2022/03/13 09:39:12;;;;;;;15.60;11.68;;;;;;;;;;4954599;28;20050;-75
2022/03/13 09:41:38;;;;;;;13.32;10.77;;;;;;;;;;4955597;28;20381;-75
2022/03/13 09:44:06;;;;;;;15.32;11.05;;;;;;;;;;4972051;28;20376;-75
2022/03/13 09:46:35;;;;;;;12.65;10.77;;;;;;;;;;4946911;29;20043;-75
2022/03/13 09:49:01;;;;;;;13.93;11.70;;;;;;;;;;4961355;28;20082;-75
2022/03/13 09:51:27;;;;;;;14.02;11.77;;;;;;;;;;4971890;28;20122;-75
2022/03/13 09:53:53;;;;;;;14.05;11.65;;;;;;;;;;4969100;28;20540;-75
2022/03/13 09:56:19;;;;;;;12.00;10.70;;;;;;;;;;4956067;28;20054;-75
2022/03/13 09:58:45;;;;;;;16.23;12.00;;;;;;;;;;4942177;28;20069;-75
2022/03/13 10:01:12;;;;;;;12.77;11.48;;;;;;;;;;4955074;28;20039;-75
2022/03/13 10:03:38;;;;;;;14.13;12.15;;;;;;;;;;4971226;28;20049;-75
2022/03/13 10:06:05;;;;;;;14.80;12.30;;;;;;;;;;4955156;28;20059;-75
2022/03/13 10:08:32;;;;;;;13.13;10.88;;;;;;;;;;4949263;29;20079;-75
2022/03/13 10:10:59;;;;;;;14.93;11.95;;;;;;;;;;4955220;28;20038;-75
2022/03/13 10:13:38;;;;;;;12.48;11.13;;;;;;;;;;4969773;28;20039;-75
2022/03/13 10:16:09;;;;;;;13.40;11.85;;;;;;;;;;4951999;29;20127;-75
2022/03/13 10:18:35;;;;;;;15.15;11.20;;;;;;;;;;4956816;28;20070;-75
2022/03/13 10:21:09;;;;;;;13.73;10.95;;;;;;;;;;4963385;28;20101;-75
2022/03/13 10:23:35;;;;;;;12.38;11.13;;;;;;;;;;4947391;28;20089;-75
2022/03/13 10:26:01;;;;;;;14.90;11.35;;;;;;;;;;4967016;28;20074;-75
2022/03/13 10:28:31;;;;;;;12.52;10.93;;;;;;;;;;4945646;28;20046;-75
2022/03/13 10:31:00;;;;;;;15.60;11.55;;;;;;;;;;4966901;28;20121;-75
2022/03/13 10:33:27;;;;;;;16.02;11.82;;;;;;;;;;4962560;28;20063;-75
2022/03/13 10:36:07;;;;;;;14.80;11.60;;;;;;;;;;4966767;28;20057;-75
2022/03/13 10:38:34;;;;;;;13.00;11.00;;;;;;;;;;4965906;28;20063;-75
2022/03/13 10:41:01;;;;;;;13.63;10.60;;;;;;;;;;4967363;28;20035;-75
2022/03/13 10:43:29;;;;;;;13.57;11.52;;;;;;;;;;4950256;28;20046;-75
2022/03/13 10:45:56;;;;;;;14.20;11.48;;;;;;;;;;4969531;28;20065;-75
2022/03/13 10:48:30;;;;;;;13.00;11.63;;;;;;;;;;4964658;28;20054;-74
2022/03/13 10:51:00;;;;;;;13.65;11.93;;;;;;;;;;4963522;28;20110;-75
2022/03/13 10:53:27;;;;;;;14.07;10.93;;;;;;;;;;4965205;28;20030;-75
2022/03/13 10:56:10;;;;;;;13.15;10.82;;;;;;;;;;4962802;28;20517;-75
2022/03/13 10:58:45;;;;;;;13.73;11.98;;;;;;;;;;4970442;28;20559;-75
2022/03/13 11:01:13;;;;;;;13.25;11.82;;;;;;;;;;4952388;28;20035;-75
2022/03/13 11:04:18;;;;;;;15.38;11.25;;;;;;;;;;4962912;28;20043;-75
2022/03/13 11:06:44;;;;;;;13.23;11.43;;;;;;;;;;4893809;29;20127;-75
2022/03/13 11:09:10;;;;;;;13.60;10.75;;;;;;;;;;4894529;29;20168;-75
2022/03/13 11:11:36;;;;;;;13.70;11.75;;;;;;;;;;4924850;28;20136;-75
2022/03/13 11:14:02;;;;;;;13.52;11.88;;;;;;;;;;4970240;28;20049;-75
2022/03/13 11:16:30;;;;;;;12.65;10.75;;;;;;;;;;4970080;28;20053;-75
2022/03/13 11:18:56;;;;;;;12.57;11.27;;;;;;;;;;4969746;28;20094;-75
2022/03/13 11:21:25;;;;;;;15.55;11.93;;;;;;;;;;4946896;23;20058;-76
2022/03/13 11:23:51;;;;;;;14.93;11.63;;;;;;;;;;4942120;28;20466;-76
2022/03/13 11:26:18;;;;;;;14.80;12.65;;;;;;;;;;4939077;28;20666;-76
2022/03/13 11:28:45;;;;;;;16.67;11.65;;;;;;;;;;4938454;28;20074;-76
2022/03/13 11:31:28;;;;;;;13.05;10.95;;;;;;;;;;4948805;28;20054;-75
2022/03/13 11:34:13;;;;;;;12.95;11.25;;;;;;;;;;4957351;28;20579;-75
2022/03/13 11:36:41;;;;;;;13.57;10.75;;;;;;;;;;4955946;28;20034;-75
2022/03/13 11:39:08;;;;;;;14.75;11.45;;;;;;;;;;4938527;28;20126;-75
2022/03/13 11:41:37;;;;;;;15.15;11.85;;;;;;;;;;4963635;28;20125;-75
2022/03/13 11:44:28;;;;;;;14.10;11.75;;;;;;;;;;4944168;28;20046;-75
2022/03/13 11:46:55;;;;;;;13.05;11.38;;;;;;;;;;4957179;28;20054;-75
2022/03/13 11:49:27;;;;;;;13.82;12.18;;;;;;;;;;4956734;28;20122;-75
2022/03/13 11:51:52;;;;;;;;;;;;;;;;;;4965304;28;20034;-75
2022/03/13 11:54:37;;;;;;;12.85;11.27;;;;;;;;;;4950904;28;20380;-75
2022/03/13 11:57:13;;;;;;;13.50;11.32;;;;;;;;;;4949972;29;20058;-75
2022/03/13 11:59:39;;;;;;;15.60;12.35;;;;;;;;;;4943510;28;20055;-75
2022/03/13 12:02:10;;;;;;;13.25;10.95;;;;;;;;;;4956991;28;20102;-75
2022/03/13 12:04:36;;;;;;;13.35;11.43;;;;;;;;;;4953479;28;20073;-75
2022/03/13 12:07:06;;;;;;;14.75;11.55;;;;;;;;;;4937466;28;20035;-75
2022/03/13 12:09:33;;;;;;;14.80;11.45;;;;;;;;;;4952437;28;20081;-75
2022/03/13 12:12:01;;;;;;;13.20;11.13;;;;;;;;;;4945860;28;20054;-75
2022/03/13 12:14:48;;;;;;;14.48;11.85;;;;;;;;;;4951612;28;20484;-75
2022/03/13 12:17:15;;;;;;;12.88;11.13;;;;;;;;;;4937275;28;20127;-75
2022/03/13 12:19:42;;;;;;;13.63;12.20;;;;;;;;;;4955763;28;20049;-75
2022/03/13 12:22:08;;;;;;;14.40;11.52;;;;;;;;;;4953790;28;20051;-75
2022/03/13 12:24:34;;;;;;;13.98;12.55;;;;;;;;;;4956476;28;20094;-75
2022/03/13 12:27:07;;;;;;;13.27;11.88;;;;;;;;;;4954410;28;20078;-75
2022/03/13 12:29:33;;;;;;;14.90;12.73;;;;;;;;;;4969197;28;20051;-74
2022/03/13 12:31:59;;;;;;;13.32;11.93;;;;;;;;;;4954913;28;20054;-74
2022/03/13 12:34:32;;;;;;;15.25;11.93;;;;;;;;;;4955641;28;20081;-75
2022/03/13 12:37:00;;;;;;;14.95;12.25;;;;;;;;;;4957000;28;20047;-74
2022/03/13 12:39:27;;;;;;;14.35;12.85;;;;;;;;;;4953438;28;20054;-75
2022/03/13 12:41:57;;;;;;;14.50;12.15;;;;;;;;;;4956360;28;20038;-75
2022/03/13 12:44:23;;;;;;;14.98;12.50;;;;;;;;;;4951260;28;20054;-75
2022/03/13 12:46:51;;;;;;;13.63;12.05;;;;;;;;;;4955689;28;20054;-74
2022/03/13 12:49:18;;;;;;;14.25;11.98;;;;;;;;;;4956612;28;20424;-74
2022/03/13 12:51:49;;;;;;;14.25;12.75;;;;;;;;;;4940261;28;20039;-74
2022/03/13 12:54:15;;;;;;;13.38;11.98;;;;;;;;;;4956513;28;20046;-74
2022/03/13 12:56:47;;;;;;;13.35;11.93;;;;;;;;;;4956367;28;20043;-75
2022/03/13 12:59:23;;;;;;;13.27;11.88;;;;;;;;;;4954995;28;20053;-75
2022/03/13 13:02:14;;;;;;;13.48;11.52;;;;;;;;;;4951651;28;20058;-74
2022/03/13 13:04:47;;;;;;;13.57;11.77;;;;;;;;;;4955196;28;20054;-74
2022/03/13 13:07:14;;;;;;;16.23;12.68;;;;;;;;;;4955865;28;20054;-74
2022/03/13 13:09:41;;;;;;;12.77;10.90;;;;;;;;;;4955640;28;20039;-74
2022/03/13 13:12:09;;;;;;;14.02;11.93;;;;;;;;;;4939339;28;20043;-74
2022/03/13 13:14:35;;;;;;;15.15;12.18;;;;;;;;;;4950845;28;20039;-74
2022/03/13 13:17:05;;;;;;;14.07;12.52;;;;;;;;;;4953627;28;20047;-74
2022/03/13 13:19:36;;;;;;;12.80;11.50;;;;;;;;;;4947846;28;20043;-74
2022/03/13 13:22:03;;;;;;;13.95;12.05;;;;;;;;;;4950608;28;20397;-74
2022/03/13 13:24:36;;;;;;;15.88;11.88;;;;;;;;;;4949665;28;20058;-74
2022/03/13 13:27:06;;;;;;;12.52;11.13;;;;;;;;;;4953985;28;20444;-74
2022/03/13 13:29:36;;;;;;;13.52;12.00;;;;;;;;;;4954908;28;20051;-74
2022/03/13 13:32:17;;;;;;;13.02;11.70;;;;;;;;;;4953387;28;20035;-74
2022/03/13 13:35:02;;;;;;;13.83;11.93;;;;;;;;;;4944321;29;20057;-74
2022/03/13 13:37:28;;;;;;;15.48;12.70;;;;;;;;;;4965139;28;20791;-74
2022/03/13 13:40:01;;;;;;;13.60;11.77;;;;;;;;;;4951601;28;20042;-75
2022/03/13 13:42:27;;;;;;;14.00;12.60;;;;;;;;;;4948393;28;20134;-75
2022/03/13 13:44:53;;;;;;;13.07;11.57;;;;;;;;;;4955244;28;20126;-75
2022/03/13 13:47:25;;;;;;;12.43;11.13;;;;;;;;;;4954296;28;20377;-75
2022/03/13 13:49:51;;;;;;;13.27;11.95;;;;;;;;;;4955082;28;20046;-74
2022/03/13 13:52:17;;;;;;;14.30;12.25;;;;;;;;;;4951023;28;20109;-74
2022/03/13 13:54:43;;;;;;;12.50;11.20;;;;;;;;;;4954850;28;20090;-74
2022/03/13 13:57:20;;;;;;;13.60;11.60;;;;;;;;;;4939001;28;20059;-74
2022/03/13 13:59:46;;;;;;;12.02;10.77;;;;;;;;;;4953624;28;20047;-74
2022/03/13 14:02:14;;;;;;;12.68;10.80;;;;;;;;;;4954885;28;20058;-74
2022/03/13 14:04:41;;;;;;;16.23;11.77;;;;;;;;;;4952281;28;20053;-74
2022/03/13 14:07:08;;;;;;;13.35;11.00;;;;;;;;;;4954510;28;20137;-74
2022/03/13 14:09:35;;;;;;;12.98;11.63;;;;;;;;;;4954060;28;20074;-75
2022/03/13 14:12:01;;;;;;;13.40;11.10;;;;;;;;;;4939368;28;20046;-74
2022/03/13 14:14:28;;;;;;;13.57;10.68;;;;;;;;;;4953437;28;20070;-74
2022/03/13 14:16:54;;;;;;;12.23;11.00;;;;;;;;;;4953728;28;20433;-74
2022/03/13 14:19:25;;;;;;;12.63;11.20;;;;;;;;;;4952567;28;20050;-75
2022/03/13 14:21:51;;;;;;;12.40;10.63;;;;;;;;;;4954071;28;20043;-75